sensor_id;sensor_type;location;lat;lon;timestamp;P1;durP1;ratioP1;P2;durP2;ratioP2
39970;SDS011;35425;51.142;17.178;2024-03-06T00:02:07;8.27;;;7.47;;
39970;SDS011;35425;51.142;17.178;2024-03-06T00:04:34;8.35;;;7.55;;
39970;SDS011;35425;51.142;17.178;2024-03-06T00:07:01;8.45;;;7.60;;
39970;SDS011;35425;51.142;17.178;2024-03-06T00:09:28;7.97;;;7.18;;
39970;SDS011;35425;51.142;17.178;2024-03-06T00:11:55;7.70;;;7.00;;
39970;SDS011;35425;51.142;17.178;2024-03-06T00:14:23;8.15;;;7.43;;
39970;SDS011;35425;51.142;17.178;2024-03-06T00:16:50;8.55;;;7.75;;
39970;SDS011;35425;51.142;17.178;2024-03-06T00:19:17;7.90;;;7.20;;
39970;SDS011;35425;51.142;17.178;2024-03-06T00:21:44;8.38;;;7.57;;
39970;SDS011;35425;51.142;17.178;2024-03-06T00:24:12;8.23;;;7.43;;
39970;SDS011;35425;51.142;17.178;2024-03-06T00:26:43;7.88;;;7.05;;
39970;SDS011;35425;51.142;17.178;2024-03-06T00:29:11;8.73;;;7.83;;
39970;SDS011;35425;51.142;17.178;2024-03-06T00:31:45;7.82;;;7.13;;
39970;SDS011;35425;51.142;17.178;2024-03-06T00:34:12;7.75;;;7.05;;
39970;SDS011;35425;51.142;17.178;2024-03-06T00:36:42;8.02;;;7.00;;
39970;SDS011;35425;51.142;17.178;2024-03-06T00:41:45;8.57;;;7.60;;
39970;SDS011;35425;51.142;17.178;2024-03-06T00:44:15;8.27;;;7.50;;
39970;SDS011;35425;51.142;17.178;2024-03-06T00:46:42;8.48;;;7.68;;
39970;SDS011;35425;51.142;17.178;2024-03-06T00:49:09;8.40;;;7.60;;
39970;SDS011;35425;51.142;17.178;2024-03-06T00:51:36;8.73;;;7.82;;
39970;SDS011;35425;51.142;17.178;2024-03-06T00:54:14;8.80;;;8.00;;
39970;SDS011;35425;51.142;17.178;2024-03-06T00:56:41;7.88;;;7.18;;
39970;SDS011;35425;51.142;17.178;2024-03-06T00:59:08;8.13;;;7.32;;
39970;SDS011;35425;51.142;17.178;2024-03-06T01:01:35;8.45;;;7.65;;
39970;SDS011;35425;51.142;17.178;2024-03-06T01:04:02;8.85;;;7.95;;
39970;SDS011;35425;51.142;17.178;2024-03-06T01:06:29;9.05;;;8.20;;
39970;SDS011;35425;51.142;17.178;2024-03-06T01:08:56;9.32;;;8.43;;
39970;SDS011;35425;51.142;17.178;2024-03-06T01:11:24;8.95;;;8.05;;
39970;SDS011;35425;51.142;17.178;2024-03-06T01:13:51;9.77;;;8.77;;
39970;SDS011;35425;51.142;17.178;2024-03-06T01:16:18;9.60;;;8.65;;
39970;SDS011;35425;51.142;17.178;2024-03-06T01:18:45;9.38;;;8.38;;
39970;SDS011;35425;51.142;17.178;2024-03-06T01:21:12;9.95;;;8.95;;
39970;SDS011;35425;51.142;17.178;2024-03-06T01:23:40;9.60;;;8.60;;
39970;SDS011;35425;51.142;17.178;2024-03-06T01:26:07;10.10;;;9.15;;
39970;SDS011;35425;51.142;17.178;2024-03-06T01:28:34;9.43;;;8.50;;
39970;SDS011;35425;51.142;17.178;2024-03-06T01:31:01;9.75;;;8.85;;
39970;SDS011;35425;51.142;17.178;2024-03-06T01:33:28;10.60;;;9.50;;
39970;SDS011;35425;51.142;17.178;2024-03-06T01:35:55;10.52;;;9.50;;
39970;SDS011;35425;51.142;17.178;2024-03-06T01:38:22;9.65;;;8.75;;
39970;SDS011;35425;51.142;17.178;2024-03-06T01:40:49;10.93;;;9.93;;
39970;SDS011;35425;51.142;17.178;2024-03-06T01:43:20;9.93;;;9.02;;
39970;SDS011;35425;51.142;17.178;2024-03-06T01:45:48;9.60;;;8.70;;
39970;SDS011;35425;51.142;17.178;2024-03-06T01:48:17;8.93;;;8.13;;
39970;SDS011;35425;51.142;17.178;2024-03-06T01:50:44;10.55;;;9.55;;
39970;SDS011;35425;51.142;17.178;2024-03-06T01:53:12;9.85;;;8.93;;
39970;SDS011;35425;51.142;17.178;2024-03-06T01:55:39;10.35;;;9.35;;
39970;SDS011;35425;51.142;17.178;2024-03-06T01:58:07;10.57;;;9.57;;
39970;SDS011;35425;51.142;17.178;2024-03-06T02:00:34;10.93;;;9.82;;
39970;SDS011;35425;51.142;17.178;2024-03-06T02:03:02;10.88;;;9.82;;
39970;SDS011;35425;51.142;17.178;2024-03-06T02:05:29;10.88;;;9.85;;
39970;SDS011;35425;51.142;17.178;2024-03-06T02:07:58;11.13;;;10.02;;
39970;SDS011;35425;51.142;17.178;2024-03-06T02:10:29;10.43;;;9.32;;
39970;SDS011;35425;51.142;17.178;2024-03-06T02:12:56;10.02;;;9.13;;
39970;SDS011;35425;51.142;17.178;2024-03-06T02:15:24;10.95;;;9.90;;
39970;SDS011;35425;51.142;17.178;2024-03-06T02:17:51;10.57;;;9.68;;
39970;SDS011;35425;51.142;17.178;2024-03-06T02:20:21;10.43;;;9.43;;
39970;SDS011;35425;51.142;17.178;2024-03-06T02:22:48;10.65;;;9.65;;
39970;SDS011;35425;51.142;17.178;2024-03-06T02:25:15;10.80;;;9.70;;
39970;SDS011;35425;51.142;17.178;2024-03-06T02:27:42;10.90;;;9.80;;
39970;SDS011;35425;51.142;17.178;2024-03-06T02:30:10;11.00;;;9.90;;
39970;SDS011;35425;51.142;17.178;2024-03-06T02:32:37;11.18;;;10.07;;
39970;SDS011;35425;51.142;17.178;2024-03-06T02:35:05;10.52;;;9.52;;
39970;SDS011;35425;51.142;17.178;2024-03-06T02:37:35;10.77;;;9.77;;
39970;SDS011;35425;51.142;17.178;2024-03-06T02:40:02;11.68;;;10.48;;
39970;SDS011;35425;51.142;17.178;2024-03-06T02:42:30;11.00;;;9.90;;
39970;SDS011;35425;51.142;17.178;2024-03-06T02:44:57;10.65;;;9.65;;
39970;SDS011;35425;51.142;17.178;2024-03-06T02:47:23;11.07;;;9.98;;
39970;SDS011;35425;51.142;17.178;2024-03-06T02:49:51;11.00;;;9.90;;
39970;SDS011;35425;51.142;17.178;2024-03-06T02:52:18;11.15;;;10.15;;
39970;SDS011;35425;51.142;17.178;2024-03-06T02:54:45;11.45;;;10.35;;
39970;SDS011;35425;51.142;17.178;2024-03-06T02:57:12;10.43;;;9.43;;
39970;SDS011;35425;51.142;17.178;2024-03-06T02:59:39;10.65;;;9.63;;
39970;SDS011;35425;51.142;17.178;2024-03-06T03:02:06;11.23;;;10.23;;
39970;SDS011;35425;51.142;17.178;2024-03-06T03:04:34;10.80;;;9.80;;
39970;SDS011;35425;51.142;17.178;2024-03-06T03:07:01;11.02;;;10.02;;
39970;SDS011;35425;51.142;17.178;2024-03-06T03:09:28;11.48;;;10.27;;
39970;SDS011;35425;51.142;17.178;2024-03-06T03:11:55;11.25;;;10.15;;
39970;SDS011;35425;51.142;17.178;2024-03-06T03:14:22;11.70;;;10.57;;
39970;SDS011;35425;51.142;17.178;2024-03-06T03:16:49;11.18;;;10.10;;
39970;SDS011;35425;51.142;17.178;2024-03-06T03:19:16;10.70;;;9.70;;
39970;SDS011;35425;51.142;17.178;2024-03-06T03:21:44;10.40;;;9.40;;
39970;SDS011;35425;51.142;17.178;2024-03-06T03:24:11;10.77;;;9.77;;
39970;SDS011;35425;51.142;17.178;2024-03-06T03:26:38;11.05;;;9.95;;
39970;SDS011;35425;51.142;17.178;2024-03-06T03:29:05;10.82;;;9.73;;
39970;SDS011;35425;51.142;17.178;2024-03-06T03:31:31;10.15;;;9.25;;
39970;SDS011;35425;51.142;17.178;2024-03-06T03:33:59;10.60;;;9.55;;
39970;SDS011;35425;51.142;17.178;2024-03-06T03:36:26;10.30;;;9.30;;
39970;SDS011;35425;51.142;17.178;2024-03-06T03:38:56;10.15;;;9.25;;
39970;SDS011;35425;51.142;17.178;2024-03-06T03:41:28;10.90;;;9.90;;
39970;SDS011;35425;51.142;17.178;2024-03-06T03:43:55;10.40;;;9.40;;
39970;SDS011;35425;51.142;17.178;2024-03-06T03:46:25;10.18;;;9.27;;
39970;SDS011;35425;51.142;17.178;2024-03-06T03:48:53;10.02;;;9.13;;
39970;SDS011;35425;51.142;17.178;2024-03-06T03:51:19;9.93;;;9.02;;
39970;SDS011;35425;51.142;17.178;2024-03-06T03:53:46;9.77;;;8.90;;
39970;SDS011;35425;51.142;17.178;2024-03-06T03:56:17;10.20;;;9.30;;
39970;SDS011;35425;51.142;17.178;2024-03-06T03:58:44;9.77;;;8.85;;
39970;SDS011;35425;51.142;17.178;2024-03-06T04:01:11;10.00;;;9.00;;
39970;SDS011;35425;51.142;17.178;2024-03-06T04:03:38;9.73;;;8.82;;
39970;SDS011;35425;51.142;17.178;2024-03-06T04:06:07;9.30;;;8.40;;
39970;SDS011;35425;51.142;17.178;2024-03-06T04:08:34;9.57;;;8.68;;
39970;SDS011;35425;51.142;17.178;2024-03-06T04:11:02;9.60;;;8.60;;
39970;SDS011;35425;51.142;17.178;2024-03-06T04:13:29;10.02;;;9.02;;
39970;SDS011;35425;51.142;17.178;2024-03-06T04:15:56;10.27;;;9.35;;
39970;SDS011;35425;51.142;17.178;2024-03-06T04:18:23;9.40;;;8.50;;
39970;SDS011;35425;51.142;17.178;2024-03-06T04:20:50;9.93;;;9.00;;
39970;SDS011;35425;51.142;17.178;2024-03-06T04:23:17;9.52;;;8.60;;
39970;SDS011;35425;51.142;17.178;2024-03-06T04:25:44;9.27;;;8.38;;
39970;SDS011;35425;51.142;17.178;2024-03-06T04:28:11;9.55;;;8.55;;
39970;SDS011;35425;51.142;17.178;2024-03-06T04:30:39;9.10;;;8.30;;
39970;SDS011;35425;51.142;17.178;2024-03-06T04:33:06;10.70;;;9.60;;
39970;SDS011;35425;51.142;17.178;2024-03-06T04:35:33;10.02;;;9.13;;
39970;SDS011;35425;51.142;17.178;2024-03-06T04:38:01;9.15;;;8.35;;
39970;SDS011;35425;51.142;17.178;2024-03-06T04:40:33;9.38;;;8.48;;
39970;SDS011;35425;51.142;17.178;2024-03-06T04:43:01;9.45;;;8.55;;
39970;SDS011;35425;51.142;17.178;2024-03-06T04:45:28;9.00;;;8.10;;
39970;SDS011;35425;51.142;17.178;2024-03-06T04:47:55;9.20;;;8.30;;
39970;SDS011;35425;51.142;17.178;2024-03-06T04:50:22;9.48;;;8.57;;
39970;SDS011;35425;51.142;17.178;2024-03-06T04:52:49;9.13;;;8.30;;
39970;SDS011;35425;51.142;17.178;2024-03-06T04:55:17;8.60;;;7.80;;
39970;SDS011;35425;51.142;17.178;2024-03-06T04:57:49;8.75;;;7.95;;
39970;SDS011;35425;51.142;17.178;2024-03-06T05:00:16;8.73;;;7.93;;
39970;SDS011;35425;51.142;17.178;2024-03-06T05:02:45;9.27;;;8.38;;
39970;SDS011;35425;51.142;17.178;2024-03-06T05:05:29;9.73;;;8.77;;
39970;SDS011;35425;51.142;17.178;2024-03-06T05:08:13;8.43;;;7.63;;
39970;SDS011;35425;51.142;17.178;2024-03-06T05:10:59;8.60;;;7.80;;
39970;SDS011;35425;51.142;17.178;2024-03-06T05:13:43;9.20;;;8.40;;
39970;SDS011;35425;51.142;17.178;2024-03-06T05:16:27;8.85;;;7.95;;
39970;SDS011;35425;51.142;17.178;2024-03-06T05:19:11;9.00;;;8.20;;
39970;SDS011;35425;51.142;17.178;2024-03-06T05:21:56;9.13;;;8.27;;
39970;SDS011;35425;51.142;17.178;2024-03-06T05:24:40;8.77;;;7.97;;
39970;SDS011;35425;51.142;17.178;2024-03-06T05:27:25;8.25;;;7.55;;
39970;SDS011;35425;51.142;17.178;2024-03-06T05:30:10;8.82;;;7.93;;
39970;SDS011;35425;51.142;17.178;2024-03-06T05:32:54;8.63;;;7.85;;
39970;SDS011;35425;51.142;17.178;2024-03-06T05:35:38;8.40;;;7.60;;
39970;SDS011;35425;51.142;17.178;2024-03-06T05:38:22;8.60;;;7.80;;
39970;SDS011;35425;51.142;17.178;2024-03-06T05:41:06;8.68;;;7.88;;
39970;SDS011;35425;51.142;17.178;2024-03-06T05:43:52;8.27;;;7.43;;
39970;SDS011;35425;51.142;17.178;2024-03-06T05:46:37;8.85;;;7.93;;
39970;SDS011;35425;51.142;17.178;2024-03-06T05:49:20;9.07;;;8.18;;
39970;SDS011;35425;51.142;17.178;2024-03-06T05:52:05;8.55;;;7.75;;
39970;SDS011;35425;51.142;17.178;2024-03-06T05:54:49;8.75;;;7.85;;
39970;SDS011;35425;51.142;17.178;2024-03-06T05:57:33;8.13;;;7.43;;
39970;SDS011;35425;51.142;17.178;2024-03-06T06:00:17;8.15;;;7.40;;
39970;SDS011;35425;51.142;17.178;2024-03-06T06:02:45;7.80;;;7.10;;
39970;SDS011;35425;51.142;17.178;2024-03-06T06:05:13;9.20;;;8.20;;
39970;SDS011;35425;51.142;17.178;2024-03-06T06:07:52;8.00;;;7.28;;
39970;SDS011;35425;51.142;17.178;2024-03-06T06:10:19;8.15;;;7.38;;
39970;SDS011;35425;51.142;17.178;2024-03-06T06:12:48;8.02;;;7.28;;
39970;SDS011;35425;51.142;17.178;2024-03-06T06:15:16;8.38;;;7.68;;
39970;SDS011;35425;51.142;17.178;2024-03-06T06:17:43;8.68;;;7.88;;
39970;SDS011;35425;51.142;17.178;2024-03-06T06:20:11;8.38;;;7.57;;
39970;SDS011;35425;51.142;17.178;2024-03-06T06:22:43;8.68;;;7.88;;
39970;SDS011;35425;51.142;17.178;2024-03-06T06:25:10;8.40;;;7.60;;
39970;SDS011;35425;51.142;17.178;2024-03-06T06:27:37;8.75;;;7.95;;
39970;SDS011;35425;51.142;17.178;2024-03-06T06:30:05;8.95;;;8.15;;
39970;SDS011;35425;51.142;17.178;2024-03-06T06:32:33;8.93;;;8.13;;
39970;SDS011;35425;51.142;17.178;2024-03-06T06:35:01;8.93;;;8.13;;
39970;SDS011;35425;51.142;17.178;2024-03-06T06:37:27;8.80;;;8.00;;
39970;SDS011;35425;51.142;17.178;2024-03-06T06:39:54;9.45;;;8.60;;
39970;SDS011;35425;51.142;17.178;2024-03-06T06:42:21;9.57;;;8.75;;
39970;SDS011;35425;51.142;17.178;2024-03-06T06:44:48;9.57;;;8.68;;
39970;SDS011;35425;51.142;17.178;2024-03-06T06:47:16;8.80;;;8.00;;
39970;SDS011;35425;51.142;17.178;2024-03-06T06:49:43;9.25;;;8.38;;
39970;SDS011;35425;51.142;17.178;2024-03-06T06:52:11;9.38;;;8.57;;
39970;SDS011;35425;51.142;17.178;2024-03-06T06:54:38;10.25;;;9.35;;
39970;SDS011;35425;51.142;17.178;2024-03-06T06:57:05;9.93;;;9.02;;
39970;SDS011;35425;51.142;17.178;2024-03-06T06:59:32;9.40;;;8.50;;
39970;SDS011;35425;51.142;17.178;2024-03-06T07:02:00;8.90;;;8.10;;
39970;SDS011;35425;51.142;17.178;2024-03-06T07:04:27;9.88;;;8.98;;
39970;SDS011;35425;51.142;17.178;2024-03-06T07:06:54;9.30;;;8.50;;
39970;SDS011;35425;51.142;17.178;2024-03-06T07:09:21;9.63;;;8.73;;
39970;SDS011;35425;51.142;17.178;2024-03-06T07:11:48;10.00;;;9.10;;
39970;SDS011;35425;51.142;17.178;2024-03-06T07:14:18;9.75;;;8.85;;
39970;SDS011;35425;51.142;17.178;2024-03-06T07:16:46;9.18;;;8.38;;
39970;SDS011;35425;51.142;17.178;2024-03-06T07:19:14;10.50;;;9.52;;
39970;SDS011;35425;51.142;17.178;2024-03-06T07:21:41;9.77;;;8.88;;
39970;SDS011;35425;51.142;17.178;2024-03-06T07:24:08;10.30;;;9.32;;
39970;SDS011;35425;51.142;17.178;2024-03-06T07:26:35;9.63;;;8.80;;
39970;SDS011;35425;51.142;17.178;2024-03-06T07:29:02;9.75;;;8.80;;
39970;SDS011;35425;51.142;17.178;2024-03-06T07:31:30;10.35;;;9.45;;
39970;SDS011;35425;51.142;17.178;2024-03-06T07:33:58;9.65;;;8.73;;
39970;SDS011;35425;51.142;17.178;2024-03-06T07:36:25;9.52;;;8.63;;
39970;SDS011;35425;51.142;17.178;2024-03-06T07:38:53;9.98;;;9.07;;
39970;SDS011;35425;51.142;17.178;2024-03-06T07:41:21;10.38;;;9.38;;
39970;SDS011;35425;51.142;17.178;2024-03-06T07:43:48;10.05;;;9.15;;
39970;SDS011;35425;51.142;17.178;2024-03-06T07:46:15;10.38;;;9.38;;
39970;SDS011;35425;51.142;17.178;2024-03-06T07:48:42;9.73;;;8.65;;
39970;SDS011;35425;51.142;17.178;2024-03-06T07:51:10;11.13;;;9.07;;
39970;SDS011;35425;51.142;17.178;2024-03-06T07:53:37;10.50;;;8.95;;
39970;SDS011;35425;51.142;17.178;2024-03-06T07:56:04;10.00;;;8.95;;
39970;SDS011;35425;51.142;17.178;2024-03-06T07:58:33;9.65;;;8.63;;
39970;SDS011;35425;51.142;17.178;2024-03-06T08:01:00;9.70;;;8.80;;
39970;SDS011;35425;51.142;17.178;2024-03-06T08:03:27;9.35;;;8.48;;
39970;SDS011;35425;51.142;17.178;2024-03-06T08:05:54;9.88;;;8.88;;
39970;SDS011;35425;51.142;17.178;2024-03-06T08:08:21;9.90;;;9.00;;
39970;SDS011;35425;51.142;17.178;2024-03-06T08:10:49;10.30;;;9.05;;
39970;SDS011;35425;51.142;17.178;2024-03-06T08:13:16;10.15;;;9.25;;
39970;SDS011;35425;51.142;17.178;2024-03-06T08:15:45;10.32;;;9.32;;
39970;SDS011;35425;51.142;17.178;2024-03-06T08:18:12;9.60;;;8.60;;
39970;SDS011;35425;51.142;17.178;2024-03-06T08:20:41;9.68;;;8.68;;
39970;SDS011;35425;51.142;17.178;2024-03-06T08:23:09;9.68;;;8.77;;
39970;SDS011;35425;51.142;17.178;2024-03-06T08:25:37;9.68;;;8.77;;
39970;SDS011;35425;51.142;17.178;2024-03-06T08:28:04;9.73;;;8.75;;
39970;SDS011;35425;51.142;17.178;2024-03-06T08:30:32;9.23;;;8.43;;
39970;SDS011;35425;51.142;17.178;2024-03-06T08:32:59;9.50;;;8.68;;
39970;SDS011;35425;51.142;17.178;2024-03-06T08:35:27;9.80;;;8.80;;
39970;SDS011;35425;51.142;17.178;2024-03-06T08:37:54;8.82;;;8.02;;
39970;SDS011;35425;51.142;17.178;2024-03-06T08:40:22;8.57;;;7.85;;
39970;SDS011;35425;51.142;17.178;2024-03-06T08:42:50;8.77;;;7.97;;
39970;SDS011;35425;51.142;17.178;2024-03-06T08:45:17;9.07;;;8.20;;
39970;SDS011;35425;51.142;17.178;2024-03-06T08:47:44;8.38;;;7.57;;
39970;SDS011;35425;51.142;17.178;2024-03-06T08:50:12;8.35;;;7.55;;
39970;SDS011;35425;51.142;17.178;2024-03-06T08:52:40;8.50;;;7.70;;
39970;SDS011;35425;51.142;17.178;2024-03-06T08:55:08;8.18;;;7.38;;
39970;SDS011;35425;51.142;17.178;2024-03-06T08:57:36;8.63;;;7.82;;
39970;SDS011;35425;51.142;17.178;2024-03-06T09:00:03;8.32;;;7.60;;
39970;SDS011;35425;51.142;17.178;2024-03-06T09:02:31;8.15;;;7.40;;
39970;SDS011;35425;51.142;17.178;2024-03-06T09:05:02;7.13;;;6.53;;
39970;SDS011;35425;51.142;17.178;2024-03-06T09:07:31;7.72;;;7.03;;
39970;SDS011;35425;51.142;17.178;2024-03-06T09:10:01;7.45;;;6.75;;
39970;SDS011;35425;51.142;17.178;2024-03-06T09:12:28;7.93;;;7.22;;
39970;SDS011;35425;51.142;17.178;2024-03-06T09:14:56;7.22;;;6.53;;
39970;SDS011;35425;51.142;17.178;2024-03-06T09:17:23;7.30;;;6.60;;
39970;SDS011;35425;51.142;17.178;2024-03-06T09:19:50;6.68;;;6.07;;
39970;SDS011;35425;51.142;17.178;2024-03-06T09:22:33;6.93;;;6.32;;
39970;SDS011;35425;51.142;17.178;2024-03-06T09:25:00;6.38;;;5.78;;
39970;SDS011;35425;51.142;17.178;2024-03-06T09:27:27;6.80;;;6.20;;
39970;SDS011;35425;51.142;17.178;2024-03-06T09:29:55;6.57;;;5.97;;
39970;SDS011;35425;51.142;17.178;2024-03-06T09:32:26;6.72;;;6.13;;
39970;SDS011;35425;51.142;17.178;2024-03-06T09:34:56;6.32;;;5.78;;
39970;SDS011;35425;51.142;17.178;2024-03-06T09:37:23;6.15;;;5.57;;
39970;SDS011;35425;51.142;17.178;2024-03-06T09:39:50;6.07;;;5.55;;
39970;SDS011;35425;51.142;17.178;2024-03-06T09:42:17;5.85;;;5.25;;
39970;SDS011;35425;51.142;17.178;2024-03-06T09:44:44;5.88;;;5.28;;
39970;SDS011;35425;51.142;17.178;2024-03-06T09:47:12;6.05;;;5.55;;
39970;SDS011;35425;51.142;17.178;2024-03-06T09:49:41;5.72;;;5.22;;
39970;SDS011;35425;51.142;17.178;2024-03-06T09:52:10;5.60;;;5.10;;
39970;SDS011;35425;51.142;17.178;2024-03-06T09:54:37;5.55;;;5.05;;
39970;SDS011;35425;51.142;17.178;2024-03-06T09:57:06;5.88;;;5.35;;
39970;SDS011;35425;51.142;17.178;2024-03-06T09:59:33;5.43;;;4.95;;
39970;SDS011;35425;51.142;17.178;2024-03-06T10:02:00;5.20;;;4.80;;
39970;SDS011;35425;51.142;17.178;2024-03-06T10:04:32;5.22;;;4.78;;
39970;SDS011;35425;51.142;17.178;2024-03-06T10:07:00;5.18;;;4.78;;
39970;SDS011;35425;51.142;17.178;2024-03-06T10:09:29;5.88;;;5.38;;
39970;SDS011;35425;51.142;17.178;2024-03-06T10:11:58;5.25;;;4.75;;
39970;SDS011;35425;51.142;17.178;2024-03-06T10:14:30;5.55;;;5.05;;
39970;SDS011;35425;51.142;17.178;2024-03-06T10:16:58;5.53;;;5.03;;
39970;SDS011;35425;51.142;17.178;2024-03-06T10:19:27;5.50;;;5.00;;
39970;SDS011;35425;51.142;17.178;2024-03-06T10:21:55;5.75;;;5.25;;
39970;SDS011;35425;51.142;17.178;2024-03-06T10:24:27;5.32;;;4.82;;
39970;SDS011;35425;51.142;17.178;2024-03-06T10:26:55;5.18;;;4.68;;
39970;SDS011;35425;51.142;17.178;2024-03-06T10:29:24;5.40;;;4.90;;
39970;SDS011;35425;51.142;17.178;2024-03-06T10:31:51;5.00;;;4.60;;
39970;SDS011;35425;51.142;17.178;2024-03-06T10:34:19;5.40;;;4.80;;
39970;SDS011;35425;51.142;17.178;2024-03-06T10:36:51;5.40;;;4.90;;
39970;SDS011;35425;51.142;17.178;2024-03-06T10:39:20;5.78;;;5.20;;
39970;SDS011;35425;51.142;17.178;2024-03-06T10:41:52;5.70;;;5.20;;
39970;SDS011;35425;51.142;17.178;2024-03-06T10:44:22;5.47;;;4.95;;
39970;SDS011;35425;51.142;17.178;2024-03-06T10:46:59;5.35;;;4.85;;
39970;SDS011;35425;51.142;17.178;2024-03-06T10:49:30;5.05;;;4.57;;
39970;SDS011;35425;51.142;17.178;2024-03-06T10:51:57;5.47;;;4.97;;
39970;SDS011;35425;51.142;17.178;2024-03-06T10:54:28;5.80;;;5.20;;
39970;SDS011;35425;51.142;17.178;2024-03-06T10:56:56;4.93;;;4.43;;
39970;SDS011;35425;51.142;17.178;2024-03-06T10:59:24;5.35;;;4.85;;
39970;SDS011;35425;51.142;17.178;2024-03-06T11:01:58;5.43;;;4.93;;
39970;SDS011;35425;51.142;17.178;2024-03-06T11:04:30;6.00;;;5.40;;
39970;SDS011;35425;51.142;17.178;2024-03-06T11:07:01;5.95;;;5.38;;
39970;SDS011;35425;51.142;17.178;2024-03-06T11:09:32;5.43;;;4.93;;
39970;SDS011;35425;51.142;17.178;2024-03-06T11:12:01;5.32;;;4.82;;
39970;SDS011;35425;51.142;17.178;2024-03-06T11:14:30;5.80;;;5.30;;
39970;SDS011;35425;51.142;17.178;2024-03-06T11:17:16;6.10;;;5.50;;
39970;SDS011;35425;51.142;17.178;2024-03-06T11:28:05;5.85;;;5.32;;
39970;SDS011;35425;51.142;17.178;2024-03-06T11:30:32;6.38;;;5.65;;
39970;SDS011;35425;51.142;17.178;2024-03-06T11:32:59;6.18;;;5.57;;
39970;SDS011;35425;51.142;17.178;2024-03-06T11:35:28;6.80;;;6.10;;
39970;SDS011;35425;51.142;17.178;2024-03-06T11:37:59;7.00;;;6.40;;
39970;SDS011;35425;51.142;17.178;2024-03-06T11:40:26;6.38;;;5.85;;
39970;SDS011;35425;51.142;17.178;2024-03-06T11:42:54;5.90;;;5.40;;
39970;SDS011;35425;51.142;17.178;2024-03-06T11:45:23;6.20;;;5.70;;
39970;SDS011;35425;51.142;17.178;2024-03-06T11:48:10;6.18;;;5.63;;
39970;SDS011;35425;51.142;17.178;2024-03-06T11:50:44;6.05;;;5.45;;
39970;SDS011;35425;51.142;17.178;2024-03-06T11:53:11;5.95;;;5.45;;
39970;SDS011;35425;51.142;17.178;2024-03-06T11:55:39;6.00;;;5.50;;
39970;SDS011;35425;51.142;17.178;2024-03-06T11:58:06;6.30;;;5.70;;
39970;SDS011;35425;51.142;17.178;2024-03-06T12:00:34;5.90;;;5.40;;
39970;SDS011;35425;51.142;17.178;2024-03-06T12:03:02;6.35;;;5.75;;
39970;SDS011;35425;51.142;17.178;2024-03-06T12:05:30;5.93;;;5.32;;
39970;SDS011;35425;51.142;17.178;2024-03-06T12:07:58;6.00;;;5.50;;
39970;SDS011;35425;51.142;17.178;2024-03-06T12:10:25;5.68;;;5.18;;
39970;SDS011;35425;51.142;17.178;2024-03-06T12:12:52;6.15;;;5.65;;
39970;SDS011;35425;51.142;17.178;2024-03-06T12:15:21;6.40;;;5.80;;
39970;SDS011;35425;51.142;17.178;2024-03-06T12:17:49;6.75;;;6.15;;
39970;SDS011;35425;51.142;17.178;2024-03-06T12:20:18;5.65;;;5.15;;
39970;SDS011;35425;51.142;17.178;2024-03-06T12:22:49;6.60;;;6.00;;
39970;SDS011;35425;51.142;17.178;2024-03-06T12:25:24;6.55;;;5.95;;
39970;SDS011;35425;51.142;17.178;2024-03-06T12:27:51;6.40;;;5.82;;
39970;SDS011;35425;51.142;17.178;2024-03-06T12:30:19;6.50;;;5.80;;
39970;SDS011;35425;51.142;17.178;2024-03-06T12:32:56;6.18;;;5.68;;
39970;SDS011;35425;51.142;17.178;2024-03-06T12:35:27;6.45;;;5.88;;
39970;SDS011;35425;51.142;17.178;2024-03-06T12:37:54;6.82;;;6.22;;
39970;SDS011;35425;51.142;17.178;2024-03-06T12:40:22;6.55;;;5.95;;
39970;SDS011;35425;51.142;17.178;2024-03-06T12:42:49;6.10;;;5.60;;
39970;SDS011;35425;51.142;17.178;2024-03-06T12:45:21;6.55;;;6.00;;
39970;SDS011;35425;51.142;17.178;2024-03-06T12:47:49;6.47;;;5.88;;
39970;SDS011;35425;51.142;17.178;2024-03-06T12:50:16;6.43;;;5.90;;
39970;SDS011;35425;51.142;17.178;2024-03-06T12:52:44;6.95;;;6.25;;
39970;SDS011;35425;51.142;17.178;2024-03-06T12:55:12;7.15;;;6.47;;
39970;SDS011;35425;51.142;17.178;2024-03-06T12:57:41;6.50;;;5.90;;
39970;SDS011;35425;51.142;17.178;2024-03-06T13:00:08;6.43;;;5.85;;
39970;SDS011;35425;51.142;17.178;2024-03-06T13:05:07;6.07;;;5.57;;
39970;SDS011;35425;51.142;17.178;2024-03-06T13:07:34;6.43;;;5.90;;
39970;SDS011;35425;51.142;17.178;2024-03-06T13:10:01;6.95;;;6.25;;
39970;SDS011;35425;51.142;17.178;2024-03-06T13:12:31;7.05;;;6.35;;
39970;SDS011;35425;51.142;17.178;2024-03-06T13:14:59;6.90;;;6.20;;
39970;SDS011;35425;51.142;17.178;2024-03-06T13:17:26;6.50;;;6.00;;
39970;SDS011;35425;51.142;17.178;2024-03-06T13:19:55;6.72;;;6.10;;
39970;SDS011;35425;51.142;17.178;2024-03-06T13:22:28;6.65;;;6.05;;
39970;SDS011;35425;51.142;17.178;2024-03-06T13:24:59;6.78;;;6.18;;
39970;SDS011;35425;51.142;17.178;2024-03-06T13:27:27;6.72;;;6.13;;
39970;SDS011;35425;51.142;17.178;2024-03-06T13:29:54;6.78;;;6.10;;
39970;SDS011;35425;51.142;17.178;2024-03-06T13:32:31;7.40;;;6.78;;
39970;SDS011;35425;51.142;17.178;2024-03-06T13:34:58;7.00;;;6.40;;
39970;SDS011;35425;51.142;17.178;2024-03-06T13:37:29;7.50;;;6.68;;
39970;SDS011;35425;51.142;17.178;2024-03-06T13:39:56;6.82;;;6.22;;
39970;SDS011;35425;51.142;17.178;2024-03-06T13:42:27;6.90;;;6.30;;
39970;SDS011;35425;51.142;17.178;2024-03-06T13:44:54;7.25;;;6.55;;
39970;SDS011;35425;51.142;17.178;2024-03-06T13:47:22;7.32;;;6.63;;
39970;SDS011;35425;51.142;17.178;2024-03-06T13:49:49;7.35;;;6.65;;
39970;SDS011;35425;51.142;17.178;2024-03-06T13:52:16;7.90;;;7.20;;
39970;SDS011;35425;51.142;17.178;2024-03-06T13:54:49;7.95;;;7.25;;
39970;SDS011;35425;51.142;17.178;2024-03-06T13:57:20;7.53;;;6.82;;
39970;SDS011;35425;51.142;17.178;2024-03-06T13:59:47;8.18;;;7.38;;
39970;SDS011;35425;51.142;17.178;2024-03-06T14:02:15;7.68;;;6.88;;
39970;SDS011;35425;51.142;17.178;2024-03-06T14:04:42;7.93;;;6.90;;
39970;SDS011;35425;51.142;17.178;2024-03-06T14:07:08;7.70;;;7.00;;
39970;SDS011;35425;51.142;17.178;2024-03-06T14:09:35;8.38;;;7.57;;
39970;SDS011;35425;51.142;17.178;2024-03-06T14:12:03;7.88;;;7.15;;
39970;SDS011;35425;51.142;17.178;2024-03-06T14:14:31;7.75;;;7.05;;
39970;SDS011;35425;51.142;17.178;2024-03-06T14:16:58;8.02;;;7.32;;
39970;SDS011;35425;51.142;17.178;2024-03-06T14:19:25;7.43;;;6.72;;
39970;SDS011;35425;51.142;17.178;2024-03-06T14:21:55;8.55;;;7.75;;
39970;SDS011;35425;51.142;17.178;2024-03-06T14:24:25;7.78;;;7.07;;
39970;SDS011;35425;51.142;17.178;2024-03-06T14:26:52;7.20;;;6.60;;
39970;SDS011;35425;51.142;17.178;2024-03-06T14:29:22;8.02;;;7.22;;
39970;SDS011;35425;51.142;17.178;2024-03-06T14:31:48;7.80;;;7.00;;
39970;SDS011;35425;51.142;17.178;2024-03-06T14:34:16;7.93;;;7.22;;
39970;SDS011;35425;51.142;17.178;2024-03-06T14:36:43;8.50;;;7.80;;
39970;SDS011;35425;51.142;17.178;2024-03-06T14:39:10;7.85;;;7.15;;
39970;SDS011;35425;51.142;17.178;2024-03-06T14:41:37;7.45;;;6.75;;
39970;SDS011;35425;51.142;17.178;2024-03-06T14:44:04;7.50;;;6.80;;
39970;SDS011;35425;51.142;17.178;2024-03-06T14:46:31;7.78;;;7.00;;
39970;SDS011;35425;51.142;17.178;2024-03-06T14:48:58;7.93;;;7.20;;
39970;SDS011;35425;51.142;17.178;2024-03-06T14:51:25;7.53;;;6.93;;
39970;SDS011;35425;51.142;17.178;2024-03-06T14:53:52;7.68;;;6.88;;
39970;SDS011;35425;51.142;17.178;2024-03-06T14:56:22;7.15;;;6.50;;